KNFW

Fort Worth NAS JRB (Carswell Field) Airport

Fort Worth, Texas, USA
METAR KNFW 232252Z 34007KT 10SM CLR 15/M10 A3027 RMK AO2 SLP232 T01501100 $
Observed Flight Rules
Jan-23 @ 22:52 UTC (32 minutes ago) Visual Flight Rules
Wind Visibility Clouds
340° at 7 knots 10 miles
  • Clear skies
Temperatures Readings
Current 15°C / 59°F
Dewpoint -10°C / 14°F
Humidity 17%
Altimeter 30.27" Hg
Pressure 1023.2 hPa
Elevation 198
METAR KNFW 232252Z 34007KT 10SM CLR 15/M10 A3027 RMK AO2 SLP232 T01501100 $
Observed Flight Rules
Jan-23 @ 22:52 UTC
(32 minutes ago)
VFR
Wind Visibility
340° at 7 knots 10 miles
Clouds
  • Clear skies
Temperature Dewpoint
15°C / 59°F -10°C / 14°F
Humidity Altimeter Pressure
17% 30.27" Hg 1023.2 hPa